createdAt,value
2017-11-12T00:01:34.288Z,6.30
2017-11-12T00:04:08.240Z,6.00
2017-11-12T00:06:38.481Z,6.00
2017-11-12T00:09:13.363Z,6.10
2017-11-12T00:11:45.741Z,6.00
2017-11-12T00:14:15.109Z,6.10
2017-11-12T00:16:43.819Z,5.90
2017-11-12T00:19:14.744Z,6.00
2017-11-12T00:21:43.869Z,5.80
2017-11-12T00:24:12.642Z,5.90
2017-11-12T00:26:40.477Z,5.90
2017-11-12T00:29:07.911Z,5.80
2017-11-12T00:31:37.212Z,6.10
2017-11-12T00:34:07.662Z,6.10
2017-11-12T00:36:36.515Z,6.10
2017-11-12T00:39:06.073Z,6.00
2017-11-12T00:41:36.102Z,6.00
2017-11-12T00:44:08.087Z,5.90
2017-11-12T00:46:38.561Z,5.70
2017-11-12T00:49:12.689Z,5.60
2017-11-12T00:54:25.359Z,5.70
2017-11-12T00:56:56.544Z,5.70
2017-11-12T00:59:35.066Z,5.70
2017-11-12T01:02:05.966Z,5.80
2017-11-12T01:04:33.653Z,5.80
2017-11-12T01:07:00.769Z,6.00
2017-11-12T01:09:31.724Z,6.10
2017-11-12T01:12:03.031Z,6.20
2017-11-12T01:14:35.612Z,6.20
2017-11-12T01:17:06.862Z,5.90
2017-11-12T01:19:35.060Z,6.10
2017-11-12T01:22:03.265Z,6.20
2017-11-12T01:24:31.410Z,6.10
2017-11-12T01:27:00.194Z,6.10
2017-11-12T01:29:28.786Z,6.40
2017-11-12T01:31:59.849Z,6.10
2017-11-12T01:34:29.294Z,6.20
2017-11-12T01:36:56.581Z,6.40
2017-11-12T01:39:23.290Z,6.00
2017-11-12T01:41:52.816Z,5.90
2017-11-12T01:44:22.275Z,6.00
2017-11-12T01:46:52.863Z,6.00
2017-11-12T01:49:29.160Z,5.80
2017-11-12T01:51:57.430Z,5.80
2017-11-12T01:54:24.783Z,5.90
2017-11-12T01:56:52.839Z,6.00
2017-11-12T01:59:21.155Z,5.90
2017-11-12T02:01:50.311Z,5.90
2017-11-12T02:04:18.763Z,5.70
2017-11-12T02:06:52.131Z,5.90
2017-11-12T02:09:22.241Z,5.80
2017-11-12T02:11:51.785Z,5.70
2017-11-12T02:14:19.635Z,5.70
2017-11-12T02:19:34.672Z,5.80
2017-11-12T02:22:06.088Z,5.80
2017-11-12T02:24:33.027Z,6.00
2017-11-12T02:27:00.506Z,6.00
2017-11-12T02:29:27.926Z,6.00
2017-11-12T02:32:12.521Z,6.00
2017-11-12T02:34:49.941Z,5.80
2017-11-12T02:37:20.879Z,5.70
2017-11-12T02:39:47.703Z,5.50
2017-11-12T02:42:18.142Z,5.60
2017-11-12T02:44:50.030Z,5.80
2017-11-12T02:47:20.810Z,5.60
2017-11-12T02:49:56.074Z,5.80
2017-11-12T02:52:24.125Z,5.70
2017-11-12T02:57:36.268Z,5.50
2017-11-12T03:00:05.536Z,5.90
2017-11-12T03:02:37.633Z,5.90
2017-11-12T03:05:09.541Z,5.70
2017-11-12T03:07:38.719Z,5.80
2017-11-12T03:10:06.104Z,5.80
2017-11-12T03:12:33.612Z,5.70
2017-11-12T03:15:05.741Z,5.80
2017-11-12T03:17:39.768Z,5.80
2017-11-12T03:20:13.719Z,5.70
2017-11-12T03:22:49.141Z,5.60
2017-11-12T03:25:16.709Z,5.70
2017-11-12T03:27:44.449Z,5.70
2017-11-12T03:30:10.797Z,5.70
2017-11-12T03:32:37.180Z,5.60
2017-11-12T03:35:03.534Z,5.70
2017-11-12T03:37:30.210Z,5.70
2017-11-12T03:39:56.568Z,5.60
2017-11-12T03:42:23.471Z,5.80
2017-11-12T03:44:49.856Z,5.80
2017-11-12T03:47:16.206Z,5.40
2017-11-12T03:49:42.533Z,5.70
2017-11-12T03:52:08.901Z,5.80
2017-11-12T03:54:53.090Z,5.70
2017-11-12T03:57:22.895Z,5.70
2017-11-12T03:59:49.259Z,5.60
2017-11-12T04:02:15.668Z,5.60
2017-11-12T04:04:42.004Z,5.60
2017-11-12T04:07:08.386Z,5.50
2017-11-12T04:09:34.774Z,5.70
2017-11-12T04:12:01.137Z,5.60
2017-11-12T04:14:27.635Z,5.50
2017-11-12T04:19:41.176Z,5.50
2017-11-12T04:22:07.322Z,5.80
2017-11-12T04:24:42.341Z,5.60
2017-11-12T04:27:08.484Z,5.70
2017-11-12T04:29:34.609Z,5.60
2017-11-12T04:32:00.779Z,5.60
2017-11-12T04:34:27.657Z,5.60
2017-11-12T04:36:54.521Z,5.60
2017-11-12T04:39:21.419Z,5.60
2017-11-12T04:41:47.559Z,5.60
2017-11-12T04:44:13.774Z,6.10
2017-11-12T04:46:39.913Z,5.70
2017-11-12T04:49:06.781Z,5.80
2017-11-12T04:51:33.651Z,5.80
2017-11-12T04:53:59.770Z,5.70
2017-11-12T04:56:26.654Z,5.70
2017-11-12T04:58:54.585Z,5.70
2017-11-12T05:01:20.710Z,5.60
2017-11-12T05:03:46.869Z,5.70
2017-11-12T05:06:13.013Z,5.70
2017-11-12T05:08:39.153Z,5.60
2017-11-12T05:11:05.294Z,5.70
2017-11-12T05:13:31.430Z,5.70
2017-11-12T05:15:57.551Z,5.70
2017-11-12T05:18:23.661Z,5.70
2017-11-12T05:20:49.771Z,5.80
2017-11-12T05:23:15.925Z,5.90
2017-11-12T05:25:52.233Z,5.90
2017-11-12T05:28:22.494Z,5.80
2017-11-12T05:30:48.606Z,5.90
2017-11-12T05:33:14.729Z,5.90
2017-11-12T05:35:40.862Z,5.90
2017-11-12T05:38:07.808Z,6.00
2017-11-12T05:40:33.930Z,6.00
2017-11-12T05:43:00.055Z,5.90
2017-11-12T05:45:26.187Z,6.10
2017-11-12T05:47:52.328Z,6.10
2017-11-12T05:50:18.448Z,6.00
2017-11-12T05:52:44.573Z,6.00
2017-11-12T05:55:10.705Z,6.00
2017-11-12T05:57:37.570Z,6.00
2017-11-12T06:00:03.705Z,6.00
2017-11-12T06:02:29.814Z,6.00
2017-11-12T06:04:56.685Z,6.00
2017-11-12T06:07:23.566Z,6.10
2017-11-12T06:09:49.723Z,6.10
2017-11-12T06:12:15.867Z,6.10
2017-11-12T06:14:44.131Z,6.10
2017-11-12T06:17:10.971Z,6.00
2017-11-12T06:19:37.848Z,6.10
2017-11-12T06:22:04.028Z,6.00
2017-11-12T06:24:30.166Z,6.10
2017-11-12T06:26:56.340Z,6.40
2017-11-12T06:29:23.254Z,6.10
2017-11-12T06:31:49.372Z,6.10
2017-11-12T06:34:15.517Z,6.10
2017-11-12T06:36:41.645Z,6.00
2017-11-12T06:39:07.812Z,6.00
2017-11-12T06:41:33.930Z,6.20
2017-11-12T06:44:00.086Z,6.20
2017-11-12T06:46:26.203Z,6.20
2017-11-12T06:48:59.805Z,6.30
2017-11-12T06:51:26.661Z,6.50
2017-11-12T06:53:53.509Z,6.40
2017-11-12T06:56:19.653Z,6.30
2017-11-12T06:59:00.154Z,6.20
2017-11-12T07:01:39.590Z,6.10
2017-11-12T07:04:05.936Z,6.10
2017-11-12T07:06:32.251Z,6.10
2017-11-12T07:08:58.565Z,6.00
2017-11-12T07:11:25.724Z,6.20
2017-11-12T07:13:52.069Z,5.90
2017-11-12T07:16:18.424Z,5.90
2017-11-12T07:18:58.403Z,6.00
2017-11-12T07:21:28.592Z,6.00
2017-11-12T07:23:54.930Z,6.10
2017-11-12T07:26:22.007Z,6.20
2017-11-12T07:28:48.342Z,6.10
2017-11-12T07:31:32.091Z,6.10
2017-11-12T07:33:59.631Z,6.00
2017-11-12T07:36:27.245Z,6.20
2017-11-12T07:38:53.562Z,5.70
2017-11-12T07:41:19.853Z,6.10
2017-11-12T07:43:46.929Z,6.10
2017-11-12T07:46:14.000Z,6.10
2017-11-12T07:48:40.337Z,6.10
2017-11-12T07:51:06.954Z,6.10
2017-11-12T07:53:34.033Z,6.30
2017-11-12T07:56:00.670Z,6.20
2017-11-12T07:58:26.989Z,6.30
2017-11-12T08:00:53.326Z,6.70
2017-11-12T08:03:19.669Z,6.30
2017-11-12T08:05:46.117Z,6.40
2017-11-12T08:08:14.453Z,6.40
2017-11-12T08:10:40.869Z,6.60
2017-11-12T08:13:07.364Z,6.40
2017-11-12T08:15:33.726Z,6.30
2017-11-12T08:18:00.477Z,6.60
2017-11-12T08:20:26.835Z,6.60
2017-11-12T08:22:53.275Z,6.80
2017-11-12T08:25:19.697Z,6.90
2017-11-12T08:27:56.209Z,6.50
2017-11-12T08:30:23.990Z,6.50
2017-11-12T08:32:50.382Z,6.50
2017-11-12T08:35:16.727Z,6.50
2017-11-12T08:37:43.115Z,6.40
2017-11-12T08:40:09.579Z,6.40
2017-11-12T08:42:35.947Z,6.60
2017-11-12T08:45:14.428Z,6.50
2017-11-12T08:47:45.706Z,6.60
2017-11-12T08:50:12.086Z,6.60
2017-11-12T08:52:38.462Z,6.80
2017-11-12T08:55:04.777Z,6.90
2017-11-12T08:57:31.139Z,7.00
2017-11-12T08:59:57.496Z,7.00
2017-11-12T09:02:23.838Z,7.10
2017-11-12T09:04:50.173Z,7.00
2017-11-12T09:07:17.377Z,6.80
2017-11-12T09:09:43.709Z,6.80
2017-11-12T09:12:10.077Z,6.90
2017-11-12T09:14:36.512Z,6.90
2017-11-12T09:17:02.844Z,6.90
2017-11-12T09:19:30.567Z,7.20
2017-11-12T09:21:56.993Z,6.70
2017-11-12T09:24:23.387Z,6.80
2017-11-12T09:26:49.728Z,7.00
2017-11-12T09:29:27.073Z,7.00
2017-11-12T09:31:53.222Z,7.00
2017-11-12T09:34:19.338Z,7.20
2017-11-12T09:36:46.207Z,7.30
2017-11-12T09:39:25.574Z,7.20
2017-11-12T09:41:53.318Z,7.10
2017-11-12T09:44:20.191Z,7.00
2017-11-12T09:46:47.095Z,6.90
2017-11-12T09:49:13.319Z,6.90
2017-11-12T09:51:39.468Z,6.80
2017-11-12T09:54:05.595Z,6.70
2017-11-12T09:56:31.709Z,6.80
2017-11-12T09:58:58.601Z,6.90
2017-11-12T10:01:24.784Z,6.90
2017-11-12T10:03:50.884Z,6.90
2017-11-12T10:06:17.005Z,6.90
2017-11-12T10:08:43.855Z,6.90
2017-11-12T10:11:10.737Z,6.80
2017-11-12T10:13:37.627Z,6.60
2017-11-12T10:16:03.763Z,6.60
2017-11-12T10:18:29.912Z,6.70
2017-11-12T10:20:56.034Z,6.70
2017-11-12T10:23:22.201Z,6.70
2017-11-12T10:25:49.121Z,6.60
2017-11-12T10:28:15.298Z,6.60
2017-11-12T10:30:41.474Z,6.70
2017-11-12T10:33:09.593Z,6.80
2017-11-12T10:35:35.741Z,6.80
2017-11-12T10:38:02.000Z,6.60
2017-11-12T10:40:28.131Z,6.40
2017-11-12T10:42:54.295Z,6.30
2017-11-12T10:45:20.427Z,6.30
2017-11-12T10:47:46.566Z,6.30
2017-11-12T10:50:13.245Z,6.40
2017-11-12T10:52:39.534Z,6.50
2017-11-12T10:55:05.692Z,6.30
2017-11-12T10:57:31.813Z,6.20
2017-11-12T10:59:57.944Z,6.20
2017-11-12T11:02:27.474Z,6.30
2017-11-12T11:04:53.647Z,6.60
2017-11-12T11:07:19.790Z,6.50
2017-11-12T11:09:49.922Z,6.40
2017-11-12T11:12:16.091Z,6.50
2017-11-12T11:14:43.971Z,6.90
2017-11-12T11:17:10.172Z,6.90
2017-11-12T11:19:36.317Z,6.90
2017-11-12T11:22:02.497Z,7.00
2017-11-12T11:24:28.625Z,7.20
2017-11-12T11:26:54.831Z,6.90
2017-11-12T11:29:20.970Z,6.80
2017-11-12T11:31:47.104Z,6.80
2017-11-12T11:34:13.224Z,6.60
2017-11-12T11:36:39.355Z,6.80
2017-11-12T11:39:06.357Z,6.80
2017-11-12T11:41:32.532Z,6.80
2017-11-12T11:43:58.666Z,6.90
2017-11-12T11:46:24.778Z,7.00
2017-11-12T11:48:50.982Z,7.00
2017-11-12T11:51:17.860Z,6.50
2017-11-12T11:53:44.037Z,6.50
2017-11-12T11:56:10.195Z,6.50
2017-11-12T11:58:36.524Z,6.50
2017-11-12T12:01:03.058Z,6.40
2017-11-12T12:03:29.226Z,6.70
2017-11-12T12:05:55.373Z,6.60
2017-11-12T12:08:22.266Z,6.80
2017-11-12T12:10:49.132Z,6.90
2017-11-12T12:13:15.438Z,6.90
2017-11-12T12:15:42.402Z,6.70
2017-11-12T12:18:08.746Z,6.70
2017-11-12T12:20:34.865Z,6.70
2017-11-12T12:23:00.987Z,6.80
2017-11-12T12:25:27.116Z,6.90
2017-11-12T12:27:53.250Z,6.90
2017-11-12T12:30:19.495Z,7.00
2017-11-12T12:32:45.834Z,6.90
2017-11-12T12:35:12.014Z,6.80
2017-11-12T12:37:38.186Z,6.50
2017-11-12T12:40:04.332Z,6.70
2017-11-12T12:42:31.188Z,6.80
2017-11-12T12:44:58.054Z,6.90
2017-11-12T12:47:24.200Z,6.90
2017-11-12T12:49:50.477Z,7.00
2017-11-12T12:52:16.613Z,6.90
2017-11-12T12:54:42.784Z,6.90
2017-11-12T12:57:08.931Z,6.90
2017-11-12T12:59:35.161Z,6.80
2017-11-12T13:02:01.343Z,6.90
2017-11-12T13:04:28.278Z,6.90
2017-11-12T13:06:54.418Z,6.90
2017-11-12T13:09:20.564Z,7.00
2017-11-12T13:11:46.797Z,7.10
2017-11-12T13:14:12.930Z,7.10
2017-11-12T13:16:39.057Z,7.20
2017-11-12T13:19:05.235Z,7.20
2017-11-12T13:21:31.396Z,7.20
2017-11-12T13:23:58.739Z,7.10
2017-11-12T13:26:24.888Z,7.20
2017-11-12T13:28:51.080Z,7.30
2017-11-12T13:31:17.294Z,7.50
2017-11-12T13:33:44.187Z,7.60
2017-11-12T13:36:10.359Z,7.60
2017-11-12T13:38:36.507Z,7.50
2017-11-12T13:41:02.774Z,7.60
2017-11-12T13:43:28.981Z,7.70
2017-11-12T13:45:55.153Z,7.50
2017-11-12T13:48:21.278Z,7.70
2017-11-12T13:50:47.418Z,7.30
2017-11-12T13:53:13.811Z,7.40
2017-11-12T13:55:41.318Z,7.40
2017-11-12T13:58:07.496Z,7.50
2017-11-12T14:00:33.665Z,7.30
2017-11-12T14:02:59.973Z,7.30
2017-11-12T14:05:26.126Z,7.30
2017-11-12T14:07:52.469Z,7.10
2017-11-12T14:10:18.803Z,7.20
2017-11-12T14:12:45.246Z,7.20
2017-11-12T14:15:11.599Z,7.40
2017-11-12T14:17:37.949Z,7.20
2017-11-12T14:20:04.290Z,7.10
2017-11-12T14:22:30.622Z,7.00
2017-11-12T14:24:56.979Z,6.60
2017-11-12T14:27:23.330Z,7.10
2017-11-12T14:29:49.798Z,7.00
2017-11-12T14:32:16.168Z,6.90
2017-11-12T14:34:42.557Z,6.90
2017-11-12T14:37:09.262Z,7.10
2017-11-12T14:39:35.661Z,7.10
2017-11-12T14:42:02.009Z,7.20
2017-11-12T14:44:28.346Z,7.00
2017-11-12T14:46:54.681Z,6.90
2017-11-12T14:49:21.037Z,6.90
2017-11-12T14:51:47.397Z,7.10
2017-11-12T14:54:13.730Z,7.30
2017-11-12T14:56:40.088Z,7.10
2017-11-12T14:59:06.370Z,7.00
2017-11-12T15:01:33.455Z,7.10
2017-11-12T15:03:59.798Z,7.00
2017-11-12T15:06:26.235Z,7.00
2017-11-12T15:08:52.568Z,6.90
2017-11-12T15:11:20.417Z,7.00
2017-11-12T15:13:46.613Z,6.90
2017-11-12T15:16:12.926Z,6.90
2017-11-12T15:18:40.007Z,6.90
2017-11-12T15:21:06.241Z,6.80
2017-11-12T15:23:32.728Z,7.20
2017-11-12T15:25:59.088Z,6.70
2017-11-12T15:28:25.981Z,7.00
2017-11-12T15:30:52.323Z,7.00
2017-11-12T15:33:18.457Z,7.00
2017-11-12T15:35:44.892Z,7.00
2017-11-12T15:38:11.973Z,6.90
2017-11-12T15:40:38.099Z,6.90
2017-11-12T15:43:04.246Z,7.00
2017-11-12T15:45:30.384Z,7.00
2017-11-12T15:47:56.708Z,7.00
2017-11-12T15:50:23.574Z,6.80
2017-11-12T15:52:49.789Z,6.80
2017-11-12T15:55:16.688Z,7.10
2017-11-12T15:57:42.850Z,7.10
2017-11-12T16:00:09.218Z,7.00
2017-11-12T16:02:36.546Z,7.10
2017-11-12T16:05:02.957Z,7.00
2017-11-12T16:07:29.380Z,7.00
2017-11-12T16:09:55.748Z,6.80
2017-11-12T16:12:22.138Z,6.70
2017-11-12T16:14:48.669Z,6.80
2017-11-12T16:17:15.220Z,6.80
2017-11-12T16:19:42.748Z,6.90
2017-11-12T16:22:09.319Z,6.70
2017-11-12T16:24:35.779Z,6.60
2017-11-12T16:27:02.246Z,6.50
2017-11-12T16:29:29.622Z,6.60
2017-11-12T16:31:56.068Z,6.50
2017-11-12T16:34:22.718Z,6.50
2017-11-12T16:36:53.726Z,6.60
2017-11-12T16:39:20.713Z,6.70
2017-11-12T16:41:46.868Z,6.70
2017-11-12T16:44:13.191Z,6.70
2017-11-12T16:46:39.731Z,6.60
2017-11-12T16:49:06.316Z,6.60
2017-11-12T16:51:33.465Z,6.50
2017-11-12T16:53:59.783Z,6.50
2017-11-12T16:56:25.926Z,6.30
2017-11-12T16:58:52.089Z,6.40
2017-11-12T17:01:18.226Z,6.40
2017-11-12T17:03:44.459Z,6.20
2017-11-12T17:06:10.669Z,6.20
2017-11-12T17:08:36.802Z,6.20
2017-11-12T17:11:02.935Z,6.30
2017-11-12T17:13:29.103Z,6.50
2017-11-12T17:15:55.237Z,6.40
2017-11-12T17:18:21.655Z,6.40
2017-11-12T17:20:47.790Z,6.40
2017-11-12T17:23:14.183Z,6.50
2017-11-12T17:25:40.598Z,6.40
2017-11-12T17:28:06.980Z,6.50
2017-11-12T17:30:33.411Z,6.40
2017-11-12T17:32:59.873Z,6.40
2017-11-12T17:35:26.244Z,6.40
2017-11-12T17:37:52.656Z,6.40
2017-11-12T17:40:19.020Z,6.40
2017-11-12T17:42:45.547Z,6.40
2017-11-12T17:45:11.918Z,6.40
2017-11-12T17:47:38.274Z,6.50
2017-11-12T17:50:05.618Z,6.50
2017-11-12T17:52:31.860Z,6.50
2017-11-12T17:54:58.778Z,6.50
2017-11-12T17:57:25.102Z,6.50
2017-11-12T17:59:51.399Z,6.50
2017-11-12T18:02:17.562Z,6.40
2017-11-12T18:04:44.448Z,6.40
2017-11-12T18:07:10.630Z,6.40
2017-11-12T18:09:36.930Z,6.50
2017-11-12T18:12:03.132Z,6.50
2017-11-12T18:14:30.032Z,6.50
2017-11-12T18:16:56.206Z,6.50
2017-11-12T18:19:22.355Z,6.50
2017-11-12T18:21:49.294Z,6.60
2017-11-12T18:24:15.728Z,6.60
2017-11-12T18:26:42.927Z,6.60
2017-11-12T18:29:09.284Z,6.60
2017-11-12T18:31:35.662Z,6.70
2017-11-12T18:34:02.282Z,6.60
2017-11-12T18:36:28.657Z,6.70
2017-11-12T18:38:55.037Z,6.60
2017-11-12T18:41:21.457Z,6.40
2017-11-12T18:43:47.842Z,6.40
2017-11-12T18:46:14.281Z,6.30
2017-11-12T18:48:40.715Z,6.50
2017-11-12T18:51:07.954Z,6.50
2017-11-12T18:53:34.321Z,6.50
2017-11-12T18:56:00.734Z,6.40
2017-11-12T18:58:31.043Z,6.40
2017-11-12T19:00:57.388Z,6.50
2017-11-12T19:16:45.566Z,6.30
2017-11-12T19:19:13.590Z,6.30
2017-11-12T19:35:01.347Z,6.60
2017-11-12T19:37:27.705Z,6.80
2017-11-12T19:39:54.810Z,6.50
2017-11-12T19:42:21.116Z,6.40
2017-11-12T19:44:47.611Z,6.50
2017-11-12T19:47:14.198Z,6.40
2017-11-12T19:49:40.594Z,6.40
2017-11-12T19:52:07.095Z,6.40
2017-11-12T19:54:33.509Z,6.40
2017-11-12T19:57:00.040Z,6.10
2017-11-12T19:59:26.407Z,6.40
2017-11-12T20:01:53.526Z,6.40
2017-11-12T20:04:20.410Z,6.40
2017-11-12T20:06:47.918Z,6.40
2017-11-12T20:09:14.254Z,6.30
2017-11-12T20:11:41.373Z,6.30
2017-11-12T20:14:07.744Z,6.30
2017-11-12T20:16:34.178Z,6.60
2017-11-12T20:19:01.315Z,6.40
2017-11-12T20:21:27.711Z,6.40
2017-11-12T20:23:54.786Z,6.40
2017-11-12T20:26:21.130Z,6.30
2017-11-12T20:28:47.628Z,6.40
2017-11-12T20:31:14.034Z,6.60
2017-11-12T20:33:41.153Z,6.70
2017-11-12T20:36:07.544Z,6.70
2017-11-12T20:38:33.913Z,6.50
2017-11-12T20:41:00.303Z,6.40
2017-11-12T20:43:26.741Z,6.40
2017-11-12T20:45:53.162Z,6.10
2017-11-12T20:48:19.768Z,6.30
2017-11-12T20:50:46.226Z,6.30
2017-11-12T20:53:12.579Z,6.40
2017-11-12T20:55:38.973Z,6.40
2017-11-12T20:58:06.247Z,6.60
2017-11-12T21:00:42.752Z,6.50
2017-11-12T21:03:09.915Z,6.50
2017-11-12T21:05:37.715Z,6.40
2017-11-12T21:08:04.366Z,6.50
2017-11-12T21:10:31.502Z,6.40
2017-11-12T21:12:58.067Z,6.40
2017-11-12T21:15:24.504Z,6.50
2017-11-12T21:17:50.918Z,6.50
2017-11-12T21:33:52.055Z,6.50
2017-11-12T21:36:18.495Z,6.70
2017-11-12T21:38:45.901Z,6.40
2017-11-12T21:41:13.013Z,6.50
2017-11-12T21:43:39.497Z,6.40
2017-11-12T21:46:05.791Z,6.60
2017-11-12T21:48:32.139Z,6.30
2017-11-12T21:50:58.686Z,6.20
2017-11-12T21:53:24.980Z,6.10
2017-11-12T21:55:52.176Z,6.30
2017-11-12T21:58:20.713Z,6.20
2017-11-12T22:00:47.160Z,6.30
2017-11-12T22:03:13.536Z,6.20
2017-11-12T22:05:40.591Z,6.30
2017-11-12T22:08:07.040Z,6.30
2017-11-12T22:10:34.028Z,6.50
2017-11-12T22:13:00.432Z,6.50
2017-11-12T22:15:27.264Z,6.40
2017-11-12T22:17:54.405Z,6.30
2017-11-12T22:20:21.574Z,6.30
2017-11-12T22:22:47.911Z,6.30
2017-11-12T22:25:14.225Z,6.10
2017-11-12T22:27:42.722Z,6.30
2017-11-12T22:30:09.107Z,6.40
2017-11-12T22:32:37.262Z,6.40
2017-11-12T22:35:06.296Z,6.50
2017-11-12T22:37:34.891Z,6.20
2017-11-12T22:40:02.621Z,6.40
2017-11-12T22:42:28.961Z,6.20
2017-11-12T22:44:55.413Z,6.30
2017-11-12T22:47:21.991Z,6.60
2017-11-12T22:49:48.231Z,6.20
2017-11-12T22:52:14.610Z,6.30
2017-11-12T22:54:43.540Z,6.30
2017-11-12T22:57:10.079Z,6.30
2017-11-12T22:59:37.424Z,6.30
2017-11-12T23:02:03.757Z,6.20
2017-11-12T23:04:31.275Z,6.30
2017-11-12T23:07:02.809Z,6.30
2017-11-12T23:09:29.251Z,6.20
2017-11-12T23:11:55.843Z,6.20
2017-11-12T23:14:22.579Z,6.10
2017-11-12T23:16:51.015Z,6.30
2017-11-12T23:19:17.452Z,6.30
2017-11-12T23:21:44.894Z,6.10
2017-11-12T23:24:11.150Z,6.30
2017-11-12T23:26:37.546Z,6.60
2017-11-12T23:29:03.895Z,6.50
2017-11-12T23:31:31.168Z,6.30
2017-11-12T23:33:57.575Z,6.20
2017-11-12T23:36:23.877Z,6.30
2017-11-12T23:38:50.431Z,6.30
2017-11-12T23:41:16.995Z,6.60
2017-11-12T23:43:44.065Z,6.20
2017-11-12T23:46:11.688Z,6.10
2017-11-12T23:48:37.958Z,6.10
2017-11-12T23:51:04.179Z,6.10
2017-11-12T23:53:31.172Z,6.20
2017-11-12T23:55:57.543Z,6.30
2017-11-12T23:58:23.997Z,5.90
